Time;durP1;ratioP1;P1;durP2;ratioP2;P2;SDS_P1;SDS_P2;PMS_P1;PMS_P2;Temp;Humidity;BMP_temperature;BMP_pressure;BME280_temperature;BME280_humidity;BME280_pressure;Samples;Min_cycle;Max_cycle;Signal;HPM_P1;HPM_P2
2022/03/29 00:00:36;;;;;;;17.03;9.73;;;14.80;47.00;;;;;;5021895;28;20260;-72
2022/03/29 00:03:03;;;;;;;15.30;9.68;;;14.80;47.10;;;;;;5007409;28;20104;-71
2022/03/29 00:05:29;;;;;;;;;;;14.80;47.20;;;;;;5006263;28;20025;-72
2022/03/29 00:07:55;;;;;;;16.20;9.32;;;14.70;47.20;;;;;;5037421;28;19913;-72
2022/03/29 00:10:21;;;;;;;16.37;9.67;;;14.70;47.20;;;;;;5022024;28;20036;-71
2022/03/29 00:12:47;;;;;;;19.80;9.57;;;14.70;47.40;;;;;;5021474;28;20877;-71
2022/03/29 00:15:12;;;;;;;18.65;9.13;;;14.70;47.50;;;;;;5029777;28;20705;-71
2022/03/29 00:17:38;;;;;;;19.80;9.50;;;14.60;47.50;;;;;;5021476;28;20040;-72
2022/03/29 00:20:08;;;;;;;15.60;9.10;;;14.60;47.80;;;;;;5027401;28;20119;-71
2022/03/29 00:22:33;;;;;;;17.45;10.82;;;14.50;47.90;;;;;;5025197;28;20037;-71
2022/03/29 00:24:59;;;;;;;17.63;9.57;;;14.50;48.00;;;;;;5028364;28;20117;-72
2022/03/29 00:27:24;;;;;;;16.63;10.10;;;14.50;48.20;;;;;;5028297;28;20021;-71
2022/03/29 00:29:50;;;;;;;17.77;10.03;;;14.50;48.30;;;;;;5025604;28;20025;-71
2022/03/29 00:32:16;;;;;;;18.15;10.00;;;14.40;48.20;;;;;;5040494;28;20029;-71
2022/03/29 00:34:42;;;;;;;18.07;9.47;;;14.50;48.30;;;;;;5026129;28;20048;-77
2022/03/29 00:37:08;;;;;;;18.88;9.80;;;14.40;48.30;;;;;;5032019;28;20538;-72
2022/03/29 00:39:34;;;;;;;18.52;9.55;;;14.40;48.40;;;;;;5030292;28;20034;-72
2022/03/29 00:42:00;;;;;;;16.77;9.90;;;14.40;48.60;;;;;;5039879;28;20021;-71
2022/03/29 00:44:31;;;;;;;17.92;9.98;;;14.40;48.60;;;;;;5007581;28;20284;-71
2022/03/29 00:46:58;;;;;;;16.67;9.70;;;14.30;48.70;;;;;;5029482;28;20055;-71
2022/03/29 00:49:25;;;;;;;22.08;10.32;;;14.30;48.50;;;;;;5033825;28;20013;-71
2022/03/29 00:51:55;;;;;;;14.43;8.90;;;14.30;48.60;;;;;;5025287;28;20021;-72
2022/03/29 00:54:22;;;;;;;16.30;9.15;;;14.30;48.60;;;;;;5030989;28;20490;-71
2022/03/29 00:56:48;;;;;;;16.90;9.45;;;14.30;48.60;;;;;;5029402;28;20021;-71
2022/03/29 00:59:14;;;;;;;17.50;9.30;;;14.20;48.50;;;;;;5007923;28;20159;-72
2022/03/29 01:01:41;;;;;;;15.90;9.73;;;14.20;48.60;;;;;;5027103;28;20104;-71
2022/03/29 01:04:07;;;;;;;13.75;8.88;;;14.20;48.60;;;;;;5031059;28;20036;-72
2022/03/29 01:06:38;;;;;;;14.30;8.50;;;14.20;48.60;;;;;;5024534;28;20045;-72
2022/03/29 01:09:05;;;;;;;16.75;8.73;;;14.20;48.70;;;;;;5032399;28;20025;-72
2022/03/29 01:11:32;;;;;;;14.98;9.70;;;14.20;49.20;;;;;;5008540;28;20035;-72
2022/03/29 01:13:59;;;;;;;16.23;8.80;;;14.20;48.70;;;;;;5027221;28;20087;-71
2022/03/29 01:19:12;;;;;;;15.07;7.72;;;14.20;48.50;;;;;;5027691;28;20040;-71
2022/03/29 01:21:40;;;;;;;15.13;8.52;;;14.20;48.60;;;;;;5028992;28;20056;-71
2022/03/29 01:24:08;;;;;;;16.73;9.02;;;14.30;48.60;;;;;;5030471;28;20032;-71
2022/03/29 01:26:35;;;;;;;17.20;9.48;;;14.30;48.50;;;;;;5029042;28;20673;-71
2022/03/29 01:29:03;;;;;;;18.75;9.23;;;14.30;48.60;;;;;;5030400;28;20076;-71
2022/03/29 01:31:32;;;;;;;16.52;8.95;;;14.30;48.60;;;;;;5004078;28;20022;-71
2022/03/29 01:33:58;;;;;;;15.90;9.48;;;14.30;48.60;;;;;;5032464;28;20017;-71
2022/03/29 01:36:23;;;;;;;14.73;8.87;;;14.30;48.50;;;;;;5031841;28;20493;-71
2022/03/29 01:38:50;;;;;;;20.47;9.67;;;14.20;48.60;;;;;;5027426;28;20029;-71
2022/03/29 01:41:15;;;;;;;16.75;8.63;;;14.20;48.70;;;;;;5029693;28;21235;-71
2022/03/29 01:43:42;;;;;;;17.03;9.27;;;14.20;48.70;;;;;;5026468;28;20029;-72
2022/03/29 01:46:12;;;;;;;;;;;14.20;48.70;;;;;;5029132;28;20086;-71
2022/03/29 01:48:38;;;;;;;17.00;9.40;;;14.20;48.80;;;;;;5026129;28;19905;-72
2022/03/29 01:51:06;;;;;;;;;;;14.20;48.70;;;;;;5031452;28;20021;-72
2022/03/29 01:53:32;;;;;;;20.38;9.02;;;14.20;48.80;;;;;;5026361;28;20008;-72
2022/03/29 01:55:59;;;;;;;15.80;9.23;;;14.20;48.80;;;;;;5031820;28;20104;-72
2022/03/29 01:58:27;;;;;;;17.80;8.85;;;14.20;48.80;;;;;;5029073;28;20556;-71
2022/03/29 02:00:53;;;;;;;18.70;10.10;;;14.20;48.80;;;;;;5027126;28;20025;-71
2022/03/29 02:03:19;;;;;;;16.70;9.70;;;14.20;48.90;;;;;;5005535;28;20029;-71
2022/03/29 02:05:45;;;;;;;18.23;10.18;;;14.20;48.90;;;;;;5026284;28;20029;-71
2022/03/29 02:08:12;;;;;;;;;;;14.20;49.00;;;;;;5032030;28;20017;-71
2022/03/29 02:10:38;;;;;;;16.38;9.13;;;14.20;49.00;;;;;;5027089;28;19921;-71
2022/03/29 02:13:05;;;;;;;16.48;9.55;;;14.20;49.10;;;;;;5006108;28;20032;-72
2022/03/29 02:15:31;;;;;;;15.57;9.23;;;14.10;49.10;;;;;;5025190;28;20063;-71
2022/03/29 02:17:57;;;;;;;16.40;9.07;;;14.10;49.20;;;;;;5030919;28;20108;-71
2022/03/29 02:20:24;;;;;;;18.83;9.70;;;14.00;49.30;;;;;;5030759;28;20033;-71
2022/03/29 02:22:50;;;;;;;19.48;10.55;;;14.00;49.40;;;;;;5002209;28;20304;-71
2022/03/29 02:25:16;;;;;;;16.23;9.15;;;14.00;49.50;;;;;;5030521;28;20041;-72
2022/03/29 02:27:44;;;;;;;20.63;9.30;;;14.00;49.60;;;;;;5023961;28;20534;-72
2022/03/29 02:30:13;;;;;;;17.30;9.52;;;13.90;49.80;;;;;;5029213;28;20032;-71
2022/03/29 02:32:40;;;;;;;14.82;8.93;;;13.90;49.80;;;;;;5008057;28;20020;-72
2022/03/29 02:35:06;;;;;;;15.98;8.98;;;13.90;49.80;;;;;;5026193;28;20046;-72
2022/03/29 02:37:33;;;;;;;15.48;8.98;;;13.90;50.00;;;;;;5025969;28;20099;-72
2022/03/29 02:39:59;;;;;;;16.30;9.10;;;13.80;50.00;;;;;;5032318;28;20033;-71
2022/03/29 02:42:26;;;;;;;15.40;9.87;;;13.80;50.20;;;;;;5032780;28;20039;-72
2022/03/29 02:44:51;;;;;;;16.60;9.48;;;13.80;50.10;;;;;;5022319;28;20188;-72
2022/03/29 02:47:17;;;;;;;15.93;8.67;;;13.80;50.30;;;;;;5009196;28;20830;-72
2022/03/29 02:49:43;;;;;;;15.27;9.37;;;13.70;50.30;;;;;;5024228;28;20049;-71
2022/03/29 02:52:10;;;;;;;14.30;8.47;;;13.70;51.00;;;;;;5029782;28;20402;-71
2022/03/29 02:54:36;;;;;;;16.15;8.80;;;13.70;50.50;;;;;;5000433;28;20017;-72
2022/03/29 02:57:02;;;;;;;;;;;13.70;50.60;;;;;;5030577;28;20017;-71
2022/03/29 02:59:29;;;;;;;17.35;9.93;;;13.60;50.70;;;;;;5028766;28;20424;-71
2022/03/29 03:01:55;;;;;;;;;;;13.60;50.70;;;;;;5006810;28;20020;-71
2022/03/29 03:04:22;;;;;;;17.52;8.40;;;13.60;50.80;;;;;;5025793;28;21203;-72
2022/03/29 03:06:48;;;;;;;;;;;13.60;50.80;;;;;;5027034;28;20079;-71
2022/03/29 03:09:14;;;;;;;16.25;9.43;;;13.60;50.70;;;;;;5032815;28;20337;-72
2022/03/29 03:11:41;;;;;;;20.30;9.65;;;13.60;50.80;;;;;;5024474;28;20022;-71
2022/03/29 03:14:06;;;;;;;;;;;13.60;50.70;;;;;;5030298;28;20516;-71
2022/03/29 03:16:33;;;;;;;17.92;9.30;;;13.60;50.70;;;;;;5028658;28;19909;-71
2022/03/29 03:18:59;;;;;;;16.70;8.77;;;13.60;50.70;;;;;;5027947;28;20037;-71
2022/03/29 03:21:24;;;;;;;21.10;8.90;;;13.60;50.70;;;;;;5028914;28;20027;-71
2022/03/29 03:23:51;;;;;;;19.83;9.10;;;13.60;50.60;;;;;;5024569;28;20025;-71
2022/03/29 03:26:16;;;;;;;15.70;9.50;;;13.70;50.60;;;;;;5005416;28;20036;-72
2022/03/29 03:28:42;;;;;;;16.50;8.60;;;13.70;50.60;;;;;;5025503;28;20036;-72
2022/03/29 03:31:10;;;;;;;17.45;9.50;;;13.70;50.50;;;;;;5028591;28;20040;-71
2022/03/29 03:33:36;;;;;;;17.20;9.30;;;13.70;50.40;;;;;;5024346;28;20787;-72
2022/03/29 03:36:01;;;;;;;19.23;9.70;;;13.70;50.50;;;;;;5026987;28;20029;-72
2022/03/29 03:38:27;;;;;;;17.10;9.13;;;13.70;50.50;;;;;;5006295;28;20056;-71
2022/03/29 03:40:53;;;;;;;15.53;8.73;;;13.70;50.50;;;;;;5025458;28;20677;-71
2022/03/29 03:43:18;;;;;;;16.10;8.73;;;13.70;50.50;;;;;;5026898;28;20068;-71
2022/03/29 03:45:44;;;;;;;17.07;9.47;;;13.60;50.50;;;;;;5027321;28;20036;-72
2022/03/29 03:48:10;;;;;;;19.07;9.87;;;13.70;50.50;;;;;;5010089;28;20029;-71
2022/03/29 03:50:36;;;;;;;15.98;8.77;;;13.70;50.50;;;;;;5023862;28;20021;-71
2022/03/29 03:53:03;;;;;;;16.10;8.80;;;13.60;50.50;;;;;;5029264;28;20702;-72
2022/03/29 03:55:34;;;;;;;;;;;13.70;50.60;;;;;;5028483;28;20252;-71
2022/03/29 03:58:00;;;;;;;17.02;9.35;;;13.70;50.50;;;;;;5031173;28;19904;-72
2022/03/29 04:00:26;;;;;;;18.63;8.40;;;13.60;50.60;;;;;;5028370;28;20054;-72
2022/03/29 04:02:53;;;;;;;19.10;9.27;;;13.60;50.70;;;;;;5026839;28;20714;-72
2022/03/29 04:05:19;;;;;;;15.18;8.13;;;13.60;50.70;;;;;;5030486;28;20026;-72
2022/03/29 04:07:45;;;;;;;18.93;9.53;;;13.70;50.60;;;;;;5003011;28;20032;-72
2022/03/29 04:10:11;;;;;;;16.03;9.20;;;13.70;50.50;;;;;;5032676;28;20268;-71
2022/03/29 04:12:36;;;;;;;16.88;9.13;;;13.70;50.30;;;;;;5027284;28;20050;-71
2022/03/29 04:15:04;;;;;;;17.23;8.87;;;13.70;50.00;;;;;;5033446;28;20028;-71
2022/03/29 04:17:31;;;;;;;18.80;9.52;;;13.80;49.90;;;;;;5010174;28;20268;-72
2022/03/29 04:19:58;;;;;;;16.35;9.77;;;13.80;49.80;;;;;;5030310;28;20033;-71
2022/03/29 04:22:24;;;;;;;16.83;9.23;;;13.80;49.70;;;;;;5033681;28;21378;-72
2022/03/29 04:24:52;;;;;;;17.15;8.48;;;13.90;49.70;;;;;;5003210;28;20064;-71
2022/03/29 04:27:18;;;;;;;17.10;9.48;;;13.90;49.70;;;;;;5017080;28;20753;-71
2022/03/29 04:29:44;;;;;;;15.10;8.80;;;13.90;49.60;;;;;;5030294;28;20025;-71
2022/03/29 04:32:09;;;;;;;22.13;9.47;;;13.90;49.60;;;;;;5011976;28;20021;-72
2022/03/29 04:34:35;;;;;;;16.17;9.23;;;13.90;49.70;;;;;;5027873;28;20021;-72
2022/03/29 04:37:02;;;;;;;19.75;9.30;;;13.90;49.70;;;;;;5034474;28;20071;-72
2022/03/29 04:39:30;;;;;;;17.58;10.05;;;13.90;49.80;;;;;;5031407;28;20086;-71
2022/03/29 04:41:58;;;;;;;15.48;9.82;;;13.90;49.90;;;;;;5026274;28;20753;-71
2022/03/29 04:44:24;;;;;;;15.20;9.27;;;13.80;50.10;;;;;;5011308;28;20116;-71
2022/03/29 04:46:49;;;;;;;14.17;8.80;;;13.80;50.20;;;;;;5026211;28;20032;-71
2022/03/29 04:49:15;;;;;;;17.13;9.37;;;13.80;50.50;;;;;;5030666;28;20294;-71
2022/03/29 04:51:42;;;;;;;15.90;8.83;;;13.70;50.50;;;;;;5026785;28;20032;-72
2022/03/29 04:54:07;;;;;;;;;;;13.80;50.70;;;;;;5031546;28;20021;-71
2022/03/29 04:56:33;;;;;;;15.02;9.05;;;13.70;50.90;;;;;;5031542;28;19916;-71
2022/03/29 04:58:58;;;;;;;18.63;9.53;;;13.70;50.90;;;;;;5008392;28;20026;-71
2022/03/29 05:01:24;;;;;;;13.73;7.70;;;13.70;50.90;;;;;;5025667;28;20501;-71
2022/03/29 05:03:50;;;;;;;15.07;8.83;;;13.70;51.00;;;;;;5031817;28;20121;-72
2022/03/29 05:06:15;;;;;;;16.73;8.90;;;13.80;51.00;;;;;;5009910;28;20032;-71
2022/03/29 05:08:42;;;;;;;17.60;9.70;;;13.80;51.10;;;;;;5032130;28;20021;-72
2022/03/29 05:11:10;;;;;;;14.50;8.50;;;13.90;51.30;;;;;;5029221;28;20025;-72
2022/03/29 05:13:35;;;;;;;14.50;8.80;;;13.80;51.40;;;;;;5034086;28;20937;-72
2022/03/29 05:16:01;;;;;;;16.13;9.23;;;13.90;51.50;;;;;;5009531;28;20026;-72
2022/03/29 05:18:28;;;;;;;16.60;9.17;;;13.90;51.60;;;;;;5020567;28;20139;-72
2022/03/29 05:20:53;;;;;;;;;;;14.00;51.60;;;;;;5031976;28;20252;-72
2022/03/29 05:23:20;;;;;;;17.60;9.77;;;14.00;51.50;;;;;;5003606;28;19939;-72
2022/03/29 05:25:45;;;;;;;17.98;9.48;;;14.10;51.50;;;;;;5030908;28;20021;-71
2022/03/29 05:28:11;;;;;;;18.53;9.63;;;14.20;51.30;;;;;;5028367;28;20021;-71
2022/03/29 05:30:38;;;;;;;17.73;9.63;;;14.30;51.30;;;;;;5006514;28;20071;-75
2022/03/29 05:33:05;;;;;;;;;;;14.40;51.60;;;;;;5008851;28;20028;-74
2022/03/29 05:35:33;;;;;;;16.63;8.77;;;14.60;52.50;;;;;;5030105;28;19912;-75
2022/03/29 05:38:03;;;;;;;18.20;9.82;;;14.80;52.30;;;;;;5032771;28;20025;-75
2022/03/29 05:40:30;;;;;;;16.75;10.10;;;15.20;51.80;;;;;;5003642;28;20032;-71
2022/03/29 05:42:57;;;;;;;22.38;9.65;;;15.30;50.10;;;;;;5028530;28;20040;-71
2022/03/29 05:45:23;;;;;;;17.42;9.95;;;15.40;50.00;;;;;;5026358;28;20052;-71
2022/03/29 05:50:34;;;;;;;17.30;10.10;;;15.30;49.70;;;;;;5027276;28;20362;-71
2022/03/29 05:53:02;;;;;;;21.42;10.95;;;15.30;49.80;;;;;;5041530;28;20052;-71
2022/03/29 05:55:28;;;;;;;18.17;10.02;;;15.30;49.60;;;;;;5024157;28;20029;-71
2022/03/29 05:57:54;;;;;;;16.27;10.10;;;15.40;49.80;;;;;;5030891;28;20060;-71
2022/03/29 06:00:23;;;;;;;22.20;11.20;;;15.30;49.70;;;;;;5027422;28;20458;-72
2022/03/29 06:02:49;;;;;;;18.90;10.20;;;15.40;50.00;;;;;;5031391;28;20094;-71
2022/03/29 06:05:15;;;;;;;17.38;10.45;;;15.40;49.70;;;;;;5025302;28;20029;-72
2022/03/29 06:07:40;;;;;;;15.97;9.67;;;15.50;49.80;;;;;;5008432;28;20021;-71
2022/03/29 06:10:07;;;;;;;18.87;10.20;;;15.50;49.50;;;;;;5027933;28;20482;-71
2022/03/29 06:12:34;;;;;;;21.80;10.23;;;15.60;49.30;;;;;;5027828;28;20172;-72
2022/03/29 06:15:10;;;;;;;17.02;10.00;;;15.60;49.10;;;;;;5008123;28;20036;-71
2022/03/29 06:17:36;;;;;;;17.70;10.23;;;15.70;49.10;;;;;;5029921;28;20067;-71
2022/03/29 06:20:04;;;;;;;19.10;10.07;;;15.80;48.70;;;;;;5029686;28;20029;-72
2022/03/29 06:22:31;;;;;;;20.80;10.23;;;15.90;49.10;;;;;;5022090;28;20445;-71
2022/03/29 06:24:58;;;;;;;17.30;9.32;;;16.10;48.50;;;;;;5009835;28;20053;-71
2022/03/29 06:27:25;;;;;;;16.63;9.82;;;16.20;48.40;;;;;;5001738;28;20014;-72
2022/03/29 06:29:54;;;;;;;14.73;9.40;;;16.30;48.00;;;;;;5031204;28;20025;-72
2022/03/29 06:32:20;;;;;;;18.20;9.98;;;16.40;47.60;;;;;;5025342;28;20021;-72
2022/03/29 06:34:46;;;;;;;17.90;9.32;;;16.60;46.60;;;;;;5030492;28;20021;-72
2022/03/29 06:37:12;;;;;;;15.47;9.73;;;16.70;46.40;;;;;;5024902;28;20032;-71
2022/03/29 06:39:40;;;;;;;16.95;10.05;;;17.00;45.80;;;;;;5026264;28;20474;-71
2022/03/29 06:42:08;;;;;;;17.00;9.82;;;17.30;45.10;;;;;;5029658;28;20142;-71
2022/03/29 06:44:34;;;;;;;16.67;9.65;;;17.70;44.30;;;;;;5032645;28;20107;-72
2022/03/29 06:47:03;;;;;;;15.93;9.98;;;18.30;43.60;;;;;;5003880;28;20496;-72
2022/03/29 06:49:29;;;;;;;19.10;9.43;;;18.90;42.30;;;;;;5023733;28;20029;-72
2022/03/29 06:51:55;;;;;;;15.38;9.82;;;19.40;41.10;;;;;;5030257;28;20031;-72
2022/03/29 06:54:22;;;;;;;18.70;11.10;;;19.90;40.10;;;;;;5001548;28;20215;-72
2022/03/29 06:56:48;;;;;;;16.42;9.98;;;20.30;39.70;;;;;;5005741;28;20057;-71
2022/03/29 06:59:14;;;;;;;16.17;9.25;;;20.60;39.00;;;;;;5002429;28;20120;-72
2022/03/29 07:01:39;;;;;;;16.20;10.05;;;21.00;38.90;;;;;;5009257;28;20058;-72
2022/03/29 07:04:07;;;;;;;16.77;10.80;;;21.60;37.40;;;;;;5028679;28;20508;-72
2022/03/29 07:06:34;;;;;;;12.82;9.10;;;22.10;36.60;;;;;;5020715;28;20028;-72
2022/03/29 07:12:01;;;;;;;15.23;9.50;;;22.60;36.00;;;;;;4990229;28;20049;-72
2022/03/29 07:14:26;;;;;;;16.15;10.25;;;23.00;35.50;;;;;;5026079;28;20454;-72
2022/03/29 07:16:52;;;;;;;13.07;9.32;;;23.60;34.90;;;;;;5006078;28;20713;-71
2022/03/29 07:19:18;;;;;;;;;;;24.10;34.60;;;;;;5025963;28;20022;-72
2022/03/29 07:21:44;;;;;;;14.40;10.10;;;24.70;33.80;;;;;;5001194;28;19905;-72
2022/03/29 07:24:11;;;;;;;18.27;11.20;;;25.00;33.30;;;;;;5027318;28;20756;-72
2022/03/29 07:26:37;;;;;;;17.80;11.02;;;25.60;32.90;;;;;;5022465;28;20397;-72
2022/03/29 07:29:04;;;;;;;18.73;10.65;;;25.90;32.30;;;;;;5003930;28;20029;-72
2022/03/29 07:31:30;;;;;;;19.77;11.18;;;26.40;32.00;;;;;;5024269;28;20093;-72
2022/03/29 07:33:56;;;;;;;13.75;10.48;;;26.90;31.70;;;;;;5028615;28;20100;-72
2022/03/29 07:36:23;;;;;;;16.80;10.82;;;27.30;31.20;;;;;;5028188;28;20481;-73
2022/03/29 07:38:49;;;;;;;15.85;10.70;;;27.70;31.00;;;;;;5026029;28;20021;-72
2022/03/29 07:41:15;;;;;;;16.30;9.70;;;28.20;30.60;;;;;;5009165;28;20041;-72
2022/03/29 07:43:41;;;;;;;17.02;10.57;;;28.30;30.40;;;;;;5022286;28;20040;-72
2022/03/29 07:46:07;;;;;;;15.10;10.73;;;28.20;30.30;;;;;;5030029;28;20029;-72
2022/03/29 07:48:33;;;;;;;17.80;10.40;;;28.40;30.00;;;;;;5002940;28;20025;-72
2022/03/29 07:50:59;;;;;;;15.57;10.93;;;28.30;30.30;;;;;;5002163;28;20105;-73
2022/03/29 07:53:25;;;;;;;14.80;10.68;;;28.70;30.00;;;;;;5005007;28;20112;-73
2022/03/29 07:55:52;;;;;;;15.25;10.65;;;29.20;30.00;;;;;;5021309;28;20467;-72
2022/03/29 07:58:19;;;;;;;14.70;10.65;;;29.70;29.70;;;;;;5029500;28;20466;-72
2022/03/29 08:00:49;;;;;;;16.27;10.80;;;29.40;29.30;;;;;;5027283;28;20140;-72
2022/03/29 08:03:16;;;;;;;14.38;10.38;;;29.30;29.10;;;;;;5004951;28;20555;-72
2022/03/29 08:05:43;;;;;;;14.20;10.32;;;29.10;29.50;;;;;;5023965;28;20482;-71
2022/03/29 08:08:11;;;;;;;14.25;10.18;;;29.10;29.40;;;;;;5028874;28;20029;-72
2022/03/29 08:10:37;;;;;;;15.52;10.65;;;29.10;29.40;;;;;;5023260;28;20037;-71
2022/03/29 08:13:07;;;;;;;16.77;10.70;;;29.40;29.40;;;;;;5034392;28;20517;-71
2022/03/29 08:15:34;;;;;;;14.25;10.30;;;29.80;29.10;;;;;;5028931;28;20029;-72
2022/03/29 08:18:00;;;;;;;16.17;10.23;;;29.50;29.00;;;;;;5002409;28;20025;-72
2022/03/29 08:20:26;;;;;;;14.30;10.23;;;29.90;29.10;;;;;;5019596;28;20017;-72
2022/03/29 08:22:55;;;;;;;14.38;10.02;;;30.60;28.90;;;;;;5026755;28;20163;-72
2022/03/29 08:25:21;;;;;;;14.27;10.45;;;31.50;28.50;;;;;;5023125;28;20064;-72
2022/03/29 08:27:48;;;;;;;14.27;10.10;;;31.90;28.00;;;;;;5000001;28;20025;-71
2022/03/29 08:30:15;;;;;;;17.95;10.40;;;32.20;27.90;;;;;;5019844;28;20048;-72
2022/03/29 08:32:42;;;;;;;12.70;9.88;;;32.10;28.00;;;;;;5004571;28;20017;-72
2022/03/29 08:35:09;;;;;;;14.70;10.48;;;31.80;28.00;;;;;;5020243;28;20022;-72
2022/03/29 08:37:39;;;;;;;13.73;9.05;;;31.80;27.90;;;;;;5025708;28;20024;-72
2022/03/29 08:40:12;;;;;;;13.52;9.93;;;31.60;28.00;;;;;;4997971;28;20052;-72
2022/03/29 08:42:40;;;;;;;14.25;9.27;;;31.30;28.90;;;;;;5003799;28;20040;-73
2022/03/29 08:45:07;;;;;;;14.43;9.48;;;31.30;28.40;;;;;;5019120;28;20021;-72
2022/03/29 08:47:33;;;;;;;11.43;9.23;;;31.60;28.30;;;;;;5003475;28;20056;-72
2022/03/29 08:49:58;;;;;;;13.73;9.70;;;31.40;28.10;;;;;;5024459;28;20021;-73
2022/03/29 08:52:24;;;;;;;14.07;9.38;;;31.10;28.00;;;;;;5023439;28;20087;-71
2022/03/29 08:54:50;;;;;;;14.40;10.40;;;30.40;28.20;;;;;;5009679;28;20025;-71
2022/03/29 08:57:16;;;;;;;15.70;10.70;;;30.00;28.80;;;;;;5029075;28;20029;-72
2022/03/29 08:59:42;;;;;;;15.13;9.68;;;30.00;28.80;;;;;;5014045;28;20025;-71
2022/03/29 09:02:10;;;;;;;11.82;9.43;;;30.00;29.00;;;;;;5004088;28;20036;-72
2022/03/29 09:04:35;;;;;;;13.85;9.88;;;29.90;29.10;;;;;;5006254;28;20067;-72
2022/03/29 09:07:02;;;;;;;13.82;9.05;;;30.30;29.10;;;;;;5003404;28;20025;-72
2022/03/29 09:09:33;;;;;;;13.85;9.20;;;30.50;28.90;;;;;;5028127;28;20055;-71
2022/03/29 09:12:20;;;;;;;10.77;8.07;;;30.20;29.00;;;;;;5008255;28;20128;-72
2022/03/29 09:15:02;;;;;;;13.15;8.98;;;30.50;29.20;;;;;;5024583;28;20103;-72
2022/03/29 09:17:38;;;;;;;12.10;8.18;;;30.80;28.90;;;;;;5028417;28;20051;-72
2022/03/29 09:20:23;;;;;;;11.70;8.20;;;31.00;28.80;;;;;;5028459;28;20028;-72
2022/03/29 09:22:53;;;;;;;9.48;8.32;;;30.90;28.90;;;;;;5025889;28;20033;-72
2022/03/29 09:25:26;;;;;;;12.60;8.15;;;30.90;29.00;;;;;;5029519;28;20110;-72
2022/03/29 09:27:54;;;;;;;10.63;8.65;;;30.70;29.30;;;;;;5025430;28;20043;-72
2022/03/29 09:30:21;;;;;;;9.82;7.65;;;30.70;29.00;;;;;;5034643;28;20047;-72
2022/03/29 09:33:13;;;;;;;13.10;8.73;;;30.50;29.00;;;;;;5025082;28;20018;-72
2022/03/29 09:36:14;;;;;;;10.60;8.50;;;30.20;29.00;;;;;;5012579;28;20056;-72
2022/03/29 09:38:42;;;;;;;14.32;9.13;;;30.10;29.10;;;;;;5017563;28;20102;-72
2022/03/29 09:41:29;;;;;;;10.70;8.35;;;29.70;29.30;;;;;;5006938;28;20024;-73
2022/03/29 09:44:06;;;;;;;13.63;9.07;;;29.50;29.50;;;;;;5029204;28;20159;-72
2022/03/29 09:46:52;;;;;;;11.20;8.95;;;29.80;29.60;;;;;;5026438;28;20025;-72
2022/03/29 09:49:17;;;;;;;12.82;8.07;;;29.80;29.60;;;;;;5026088;28;20021;-72
2022/03/29 09:51:43;;;;;;;13.48;8.70;;;29.70;29.40;;;;;;5026651;28;20026;-71
2022/03/29 09:54:09;;;;;;;15.30;9.90;;;29.20;29.50;;;;;;5006291;28;20022;-72
2022/03/29 09:56:34;;;;;;;15.73;8.52;;;28.50;30.00;;;;;;5037965;28;20100;-72
2022/03/29 09:59:14;;;;;;;13.80;8.15;;;27.30;30.60;;;;;;5037278;28;20401;-71
2022/03/29 10:01:57;;;;;;;12.75;8.50;;;27.50;30.80;;;;;;5013299;28;20163;-72
2022/03/29 10:04:33;;;;;;;15.30;8.80;;;28.40;30.60;;;;;;5032964;28;20025;-72
2022/03/29 10:07:04;;;;;;;15.80;8.93;;;29.20;30.00;;;;;;5034504;28;20036;-72
2022/03/29 10:09:35;;;;;;;11.32;7.50;;;29.40;29.60;;;;;;5031671;28;20363;-72
2022/03/29 10:12:06;;;;;;;11.73;8.20;;;29.40;29.20;;;;;;5005967;28;20029;-72
2022/03/29 10:14:36;;;;;;;13.55;9.25;;;29.20;29.70;;;;;;5030686;28;20029;-72
2022/03/29 10:17:03;;;;;;;15.85;8.85;;;28.90;29.50;;;;;;5031960;28;20032;-72
2022/03/29 10:19:29;;;;;;;13.27;8.70;;;28.80;29.60;;;;;;5030185;28;20045;-72
2022/03/29 10:21:58;;;;;;;12.02;8.55;;;29.10;30.00;;;;;;5035994;28;20033;-72
2022/03/29 10:24:25;;;;;;;10.88;7.95;;;29.70;29.40;;;;;;4999584;28;20620;-73
2022/03/29 10:26:53;;;;;;;12.05;8.32;;;30.50;29.70;;;;;;5029775;28;20091;-72
2022/03/29 10:29:19;;;;;;;13.57;8.40;;;30.90;28.50;;;;;;5030457;28;20140;-72
2022/03/29 10:31:53;;;;;;;14.80;8.27;;;30.90;28.50;;;;;;5035129;28;20625;-72
2022/03/29 10:34:30;;;;;;;9.93;8.35;;;30.80;28.40;;;;;;5032503;28;20025;-72
2022/03/29 10:37:08;;;;;;;12.52;7.78;;;30.20;28.40;;;;;;5037239;28;20116;-73
2022/03/29 10:39:43;;;;;;;11.07;8.13;;;29.80;28.60;;;;;;5026749;28;20021;-74
2022/03/29 10:42:43;;;;;;;10.75;8.18;;;29.80;28.60;;;;;;5006121;28;20025;-72
2022/03/29 10:45:25;;;;;;;13.68;8.10;;;29.50;28.70;;;;;;5027197;28;20488;-72
2022/03/29 10:47:57;;;;;;;11.40;8.55;;;29.50;28.70;;;;;;5003797;28;20405;-72
2022/03/29 10:50:57;;;;;;;11.15;8.25;;;29.50;28.60;;;;;;5027908;28;20021;-72
2022/03/29 10:53:23;;;;;;;12.38;8.50;;;29.50;28.50;;;;;;5027203;28;20107;-72
2022/03/29 10:56:15;;;;;;;13.00;8.75;;;29.80;28.20;;;;;;5036141;28;20103;-72
2022/03/29 10:58:59;;;;;;;12.65;9.40;;;29.50;28.40;;;;;;5000332;28;20029;-72
2022/03/29 11:01:26;;;;;;;15.68;9.13;;;28.90;28.70;;;;;;5029274;28;20031;-72
2022/03/29 11:04:28;;;;;;;15.88;9.52;;;28.70;28.70;;;;;;5036502;28;20029;-71
2022/03/29 11:07:06;;;;;;;11.10;8.48;;;28.20;28.90;;;;;;4992582;28;20278;-71
2022/03/29 11:09:34;;;;;;;14.98;9.25;;;28.30;29.00;;;;;;5023348;28;20041;-71
2022/03/29 11:12:00;;;;;;;14.02;9.25;;;28.30;28.80;;;;;;5035248;28;20047;-71
2022/03/29 11:14:29;;;;;;;11.43;9.25;;;28.10;28.50;;;;;;5028606;28;20032;-72
2022/03/29 11:17:16;;;;;;;12.15;8.40;;;27.60;28.90;;;;;;5028604;28;20049;-71
2022/03/29 11:19:48;;;;;;;15.07;10.05;;;27.30;29.30;;;;;;5009792;28;20032;-71
2022/03/29 11:22:42;;;;;;;13.57;9.95;;;27.20;29.60;;;;;;5036176;28;20474;-71
2022/03/29 11:25:12;;;;;;;13.45;8.45;;;27.10;29.40;;;;;;5029777;28;20924;-73
2022/03/29 11:27:39;;;;;;;14.38;9.40;;;26.40;29.90;;;;;;5003181;28;20041;-73
2022/03/29 11:30:07;;;;;;;15.82;9.30;;;25.90;30.80;;;;;;5033433;28;20508;-74
2022/03/29 11:32:39;;;;;;;17.85;11.85;;;26.10;30.30;;;;;;5035359;28;20032;-73
2022/03/29 11:35:07;;;;;;;18.98;9.88;;;26.10;30.30;;;;;;5028747;28;20025;-73
2022/03/29 11:37:43;;;;;;;15.32;10.07;;;25.80;30.30;;;;;;5035621;28;20044;-73
2022/03/29 11:40:12;;;;;;;14.52;9.98;;;25.50;30.40;;;;;;5029117;28;20112;-73
2022/03/29 11:42:53;;;;;;;29.48;9.13;;;25.60;30.90;;;;;;5014017;28;20036;-72
2022/03/29 11:45:24;;;;;;;14.70;9.55;;;25.60;32.90;;;;;;5030994;28;20103;-72
2022/03/29 11:47:55;;;;;;;13.32;9.02;;;25.80;31.00;;;;;;5001429;28;20628;-71
2022/03/29 11:50:52;;;;;;;15.07;10.63;;;25.90;30.50;;;;;;5030985;28;20080;-72
2022/03/29 11:53:26;;;;;;;14.10;9.32;;;25.40;30.70;;;;;;5023053;28;20044;-72
2022/03/29 11:56:07;;;;;;;15.10;9.20;;;25.20;31.50;;;;;;5005148;28;20029;-73
2022/03/29 11:58:34;;;;;;;14.95;9.90;;;25.30;31.50;;;;;;5034590;28;20811;-71
2022/03/29 12:01:07;;;;;;;14.77;9.73;;;25.40;31.70;;;;;;5027649;28;20048;-72
2022/03/29 12:03:45;;;;;;;14.45;10.13;;;25.30;31.50;;;;;;5031288;28;20746;-72
2022/03/29 12:06:19;;;;;;;15.13;9.18;;;25.40;32.20;;;;;;5000765;28;20025;-72
2022/03/29 12:08:57;;;;;;;13.52;8.85;;;25.50;31.40;;;;;;5001966;28;20030;-73
2022/03/29 12:11:26;;;;;;;13.50;8.85;;;25.40;30.50;;;;;;5026390;28;20029;-72
2022/03/29 12:14:11;;;;;;;13.95;9.48;;;25.20;30.50;;;;;;5032929;28;20552;-72
2022/03/29 12:16:48;;;;;;;14.40;9.00;;;24.90;31.10;;;;;;5029049;28;20418;-72
2022/03/29 12:19:19;;;;;;;13.43;8.45;;;24.90;30.90;;;;;;5033196;28;20039;-72
2022/03/29 12:21:51;;;;;;;13.32;8.95;;;24.70;31.30;;;;;;5010184;28;20053;-72
2022/03/29 12:24:18;;;;;;;10.93;8.27;;;24.60;30.90;;;;;;5027691;28;20031;-72
2022/03/29 12:26:52;;;;;;;12.52;7.78;;;24.60;30.90;;;;;;5036539;28;20104;-72
2022/03/29 12:29:21;;;;;;;13.55;8.18;;;24.60;31.80;;;;;;5037493;28;20029;-72
2022/03/29 12:31:48;;;;;;;13.82;7.78;;;24.40;31.50;;;;;;5036995;28;20037;-71
2022/03/29 12:34:18;;;;;;;10.13;6.88;;;24.40;31.10;;;;;;5035839;28;20025;-72
2022/03/29 12:36:52;;;;;;;13.82;8.63;;;24.60;32.00;;;;;;5036193;28;20043;-72
2022/03/29 12:39:18;;;;;;;12.50;8.48;;;24.80;31.20;;;;;;5035495;28;20028;-72
2022/03/29 12:41:55;;;;;;;12.57;7.35;;;24.90;30.50;;;;;;5014968;28;20029;-72
2022/03/29 12:44:57;;;;;;;14.23;8.15;;;24.90;30.50;;;;;;5038986;28;20267;-71
2022/03/29 12:47:28;;;;;;;11.73;8.20;;;24.80;30.80;;;;;;5031116;28;20032;-72
2022/03/29 12:49:54;;;;;;;13.63;8.82;;;24.70;30.70;;;;;;5036236;28;20526;-72
2022/03/29 12:52:20;;;;;;;10.82;7.32;;;24.70;30.90;;;;;;5034187;28;20150;-72
2022/03/29 12:54:46;;;;;;;9.80;7.43;;;24.70;30.90;;;;;;5015385;28;20048;-72